Time;durP1;ratioP1;P1;durP2;ratioP2;P2;SDS_P1;SDS_P2;PMS_P1;PMS_P2;Temp;Humidity;BMP_temperature;BMP_pressure;BME280_temperature;BME280_humidity;BME280_pressure;Samples;Min_cycle;Max_cycle;Signal;HPM_P1;HPM_P2
2022/02/19 00:00:54;;;;;;;7.10;1.70;;;;;;;4.52;64.88;94949.53;5038435;28;20225;-79
2022/02/19 00:03:19;;;;;;;6.73;1.70;;;;;;;4.45;64.33;94953.53;5040091;28;20209;-78
2022/02/19 00:05:44;;;;;;;10.13;1.80;;;;;;;4.48;63.98;94961.78;5039896;28;20219;-80
2022/02/19 00:08:11;;;;;;;8.30;2.43;;;;;;;4.58;64.23;94961.84;5022704;28;20269;-80
2022/02/19 00:10:36;;;;;;;6.53;1.73;;;;;;;4.48;65.06;94946.38;5021935;28;20179;-78
2022/02/19 00:13:02;;;;;;;6.87;1.80;;;;;;;4.53;63.42;94956.28;5038670;28;20182;-78
2022/02/19 00:15:27;;;;;;;8.70;1.97;;;;;;;4.47;62.99;94961.94;5027764;28;20263;-77
2022/02/19 00:17:54;;;;;;;7.90;1.90;;;;;;;4.53;64.14;94964.81;5054563;28;20190;-77
2022/02/19 00:20:19;;;;;;;8.03;2.33;;;;;;;4.50;63.35;94966.81;5055147;28;20228;-77
2022/02/19 00:22:45;;;;;;;7.97;1.80;;;;;;;4.48;63.68;94973.84;5055423;28;20214;-77
2022/02/19 00:25:10;;;;;;;10.33;2.10;;;;;;;4.44;61.99;94965.56;5038602;28;20221;-77
2022/02/19 00:27:36;;;;;;;9.83;2.07;;;;;;;4.44;62.50;94970.72;5038926;28;20197;-78
2022/02/19 00:30:02;;;;;;;9.37;1.67;;;;;;;4.46;61.87;94975.72;5039007;28;20208;-77
2022/02/19 00:32:27;;;;;;;10.10;1.97;;;;;;;4.43;60.25;94973.41;5055402;28;20205;-78
2022/02/19 00:34:53;;;;;;;12.23;1.73;;;;;;;4.52;60.92;94970.91;5039535;28;20177;-78
2022/02/19 00:37:18;;;;;;;11.03;1.90;;;;;;;4.46;60.24;94973.16;5039560;28;20182;-78
2022/02/19 00:39:43;;;;;;;9.10;2.37;;;;;;;4.41;60.76;94978.66;5055600;28;20183;-78
2022/02/19 00:42:09;;;;;;;8.13;1.40;;;;;;;4.37;61.17;94982.44;5037526;28;20223;-77
2022/02/19 00:44:34;;;;;;;8.03;2.13;;;;;;;4.42;60.11;94992.34;5038610;28;20187;-78
2022/02/19 00:47:00;;;;;;;7.93;1.90;;;;;;;4.41;60.18;95039.53;5056228;28;20189;-79
2022/02/19 00:49:25;;;;;;;8.60;1.90;;;;;;;4.38;60.34;95014.09;5044057;28;20187;-79
2022/02/19 00:51:50;;;;;;;11.10;2.10;;;;;;;4.43;59.64;94997.38;5041985;28;20630;-79
2022/02/19 00:54:16;;;;;;;8.23;2.97;;;;;;;4.39;60.08;95015.72;5039718;28;20222;-79
2022/02/19 00:56:41;;;;;;;9.73;1.70;;;;;;;4.38;60.46;95012.34;5022500;28;20174;-78
2022/02/19 00:59:06;;;;;;;4.27;1.63;;;;;;;4.37;59.65;95008.13;5021867;28;20315;-80
2022/02/19 01:01:32;;;;;;;7.93;1.80;;;;;;;4.34;59.30;95005.81;5022412;28;20225;-80
2022/02/19 01:03:57;;;;;;;8.43;1.80;;;;;;;4.39;59.72;95023.44;5039280;28;20185;-78
2022/02/19 01:06:23;;;;;;;10.60;2.33;;;;;;;4.35;59.57;95014.34;5023021;28;20561;-78
2022/02/19 01:08:49;;;;;;;6.20;1.77;;;;;;;4.34;59.76;95016.09;5023105;28;20178;-78
2022/02/19 01:11:15;;;;;;;7.67;1.80;;;;;;;4.37;60.24;95007.31;5039367;28;20206;-81
2022/02/19 01:13:40;;;;;;;5.90;1.53;;;;;;;4.26;58.74;95032.13;5040191;28;20176;-80
2022/02/19 01:16:05;;;;;;;6.77;1.30;;;;;;;4.24;58.00;95015.19;5039617;28;20591;-78
2022/02/19 01:18:31;;;;;;;5.47;1.70;;;;;;;4.36;58.79;95010.84;5022776;28;20201;-80
2022/02/19 01:20:56;;;;;;;7.33;1.77;;;;;;;4.23;58.17;95032.34;5021187;28;20220;-79
2022/02/19 01:23:21;;;;;;;5.83;1.57;;;;;;;4.23;57.58;95026.41;5019157;28;20214;-79
2022/02/19 01:25:46;;;;;;;8.10;1.50;;;;;;;4.18;57.83;95049.09;5019196;28;20191;-78
2022/02/19 01:28:12;;;;;;;8.30;2.67;;;;;;;4.20;55.96;95040.31;5019680;28;20186;-81
2022/02/19 01:30:37;;;;;;;8.67;1.33;;;;;;;4.12;56.55;95031.56;5019616;28;20179;-79
2022/02/19 01:33:02;;;;;;;7.03;1.47;;;;;;;4.14;56.03;95027.13;5017846;28;20193;-78
2022/02/19 01:35:28;;;;;;;6.77;1.90;;;;;;;4.07;56.27;95047.38;5019455;28;20668;-81
2022/02/19 01:37:53;;;;;;;6.27;1.53;;;;;;;4.10;57.16;95036.84;5019424;28;20183;-78
2022/02/19 01:40:19;;;;;;;7.07;1.50;;;;;;;4.03;56.76;95043.41;5020296;28;20190;-78
2022/02/19 01:42:44;;;;;;;9.37;1.50;;;;;;;4.00;56.19;95046.22;5002501;28;20300;-78
2022/02/19 01:45:13;;;;;;;7.00;1.77;;;;;;;4.04;56.22;95052.72;5019146;28;20187;-78
2022/02/19 01:47:39;;;;;;;8.17;1.43;;;;;;;4.02;56.21;95058.94;5019182;28;20181;-79
2022/02/19 01:50:05;;;;;;;9.33;2.20;;;;;;;3.96;55.98;95055.06;5019540;28;20183;-79
2022/02/19 01:52:30;;;;;;;5.87;2.30;;;;;;;3.99;56.53;95060.00;5021102;28;20199;-81
2022/02/19 01:54:56;;;;;;;11.83;1.83;;;;;;;3.92;55.67;95058.84;5018964;28;20251;-78
2022/02/19 01:57:21;;;;;;;8.77;2.30;;;;;;;3.93;55.53;95070.75;5019005;28;20187;-78
2022/02/19 01:59:47;;;;;;;10.47;2.40;;;;;;;3.94;55.86;95062.09;5018561;28;20186;-78
2022/02/19 02:02:12;;;;;;;6.17;1.73;;;;;;;3.92;56.37;95062.22;5018423;28;20207;-79
2022/02/19 02:04:37;;;;;;;8.23;1.73;;;;;;;3.98;56.50;95076.34;5003303;28;20191;-80
2022/02/19 02:07:03;;;;;;;4.17;1.33;;;;;;;3.92;56.90;95069.13;5018969;28;20251;-77
2022/02/19 02:09:28;;;;;;;6.80;1.43;;;;;;;3.91;56.96;95082.91;5019813;28;20197;-80
2022/02/19 02:11:54;;;;;;;8.50;1.77;;;;;;;3.78;57.42;95097.59;5019350;28;20195;-80
2022/02/19 02:14:19;;;;;;;6.23;1.50;;;;;;;3.78;57.22;95077.06;5020749;28;20191;-80
2022/02/19 02:16:45;;;;;;;8.27;1.60;;;;;;;3.84;57.16;95089.44;5024272;28;20197;-80
2022/02/19 02:19:10;;;;;;;8.20;1.67;;;;;;;3.81;56.64;95089.69;5006947;28;20179;-78
2022/02/19 02:21:39;;;;;;;12.50;1.90;;;;;;;3.74;57.41;95085.94;5022482;28;20230;-78
2022/02/19 02:24:05;;;;;;;8.17;1.47;;;;;;;3.76;57.87;95082.31;5022854;28;20178;-78
2022/02/19 02:26:31;;;;;;;9.90;1.90;;;;;;;3.72;57.68;95108.34;5022968;28;20190;-78
2022/02/19 02:28:57;;;;;;;9.03;1.67;;;;;;;3.64;57.64;95104.63;5006244;28;20187;-78
2022/02/19 02:31:22;;;;;;;9.00;1.90;;;;;;;3.65;57.79;95118.28;5022007;28;20219;-78
2022/02/19 02:33:49;;;;;;;7.57;1.63;;;;;;;3.67;58.14;95091.53;5022900;28;20234;-78
2022/02/19 02:36:15;;;;;;;6.67;2.50;;;;;;;3.67;58.14;95106.13;5006537;28;20185;-80
2022/02/19 02:38:40;;;;;;;9.53;1.57;;;;;;;3.60;57.69;95126.31;5023660;28;20285;-80
2022/02/19 02:41:05;;;;;;;6.77;1.63;;;;;;;3.62;57.25;95111.63;5022123;28;20198;-78
2022/02/19 02:43:31;;;;;;;6.53;1.50;;;;;;;3.55;58.51;95120.72;5022964;28;20184;-79
2022/02/19 02:45:56;;;;;;;7.50;1.70;;;;;;;3.52;57.93;95120.94;5022205;28;20183;-77
2022/02/19 02:48:21;;;;;;;8.53;1.90;;;;;;;3.47;57.90;95125.59;5022479;28;20187;-80
2022/02/19 02:50:47;;;;;;;5.53;1.70;;;;;;;3.40;57.58;95104.69;5022605;28;20218;-80
2022/02/19 02:53:13;;;;;;;6.10;1.67;;;;;;;3.43;57.88;95134.44;5006916;28;20587;-80
2022/02/19 02:55:38;;;;;;;5.60;1.80;;;;;;;3.40;57.79;95125.25;5024371;28;20218;-79
2022/02/19 02:58:03;;;;;;;5.03;1.50;;;;;;;3.29;58.02;95121.84;5024854;28;20189;-80
2022/02/19 03:00:29;;;;;;;8.17;2.50;;;;;;;3.32;58.15;95144.72;5023179;28;20178;-80
2022/02/19 03:02:54;;;;;;;6.07;1.80;;;;;;;3.26;58.15;95135.69;5005739;28;20226;-80
2022/02/19 03:05:21;;;;;;;6.83;1.80;;;;;;;3.26;59.07;95157.97;5023111;28;20206;-78
2022/02/19 03:07:46;;;;;;;9.63;1.60;;;;;;;3.26;57.86;95166.50;5023570;28;20208;-78
2022/02/19 03:10:16;;;;;;;7.67;1.80;;;;;;;3.24;58.47;95172.69;5022203;28;20596;-78
2022/02/19 03:12:42;;;;;;;6.07;1.97;;;;;;;3.24;58.82;95175.25;5022046;28;20191;-78
2022/02/19 03:15:07;;;;;;;7.00;1.60;;;;;;;3.21;59.48;95185.75;5021400;28;20186;-78
2022/02/19 03:17:37;;;;;;;10.47;1.40;;;;;;;3.15;59.53;95188.75;5021968;28;20179;-79
2022/02/19 03:20:03;;;;;;;8.33;1.77;;;;;;;3.11;59.09;95204.38;5021464;28;20191;-78
2022/02/19 03:22:29;;;;;;;6.97;2.00;;;;;;;3.16;59.32;95216.03;5004003;28;20219;-79
2022/02/19 03:24:54;;;;;;;7.53;1.50;;;;;;;3.07;59.86;95223.47;5020431;28;20191;-78
2022/02/19 03:27:22;;;;;;;6.40;1.30;;;;;;;2.99;58.60;95212.94;5003894;28;20180;-79
2022/02/19 03:29:47;;;;;;;12.43;1.83;;;;;;;3.01;59.65;95205.97;5021579;28;20179;-79
2022/02/19 03:32:12;;;;;;;5.87;1.50;;;;;;;2.96;61.10;95192.63;5020455;28;20245;-78
2022/02/19 03:34:37;;;;;;;4.60;1.57;;;;;;;2.89;60.06;95221.41;5021567;28;20672;-78
2022/02/19 03:37:03;;;;;;;7.57;1.77;;;;;;;2.93;60.24;95251.88;5021471;28;20182;-78
2022/02/19 03:39:28;;;;;;;10.87;1.40;;;;;;;2.93;59.10;95245.91;5021650;28;20191;-79
2022/02/19 03:41:53;;;;;;;5.67;1.70;;;;;;;2.93;59.95;95249.28;5021079;28;20206;-79
2022/02/19 03:44:19;;;;;;;7.23;2.30;;;;;;;2.88;59.78;95247.97;5020867;28;20175;-78
2022/02/19 03:46:44;;;;;;;7.27;1.40;;;;;;;2.83;59.94;95259.38;5021221;28;20183;-78
2022/02/19 03:49:09;;;;;;;7.80;1.67;;;;;;;2.78;60.39;95253.75;5020961;28;20175;-78
2022/02/19 03:51:35;;;;;;;9.50;1.97;;;;;;;2.81;61.03;95270.66;5020914;28;20214;-80
2022/02/19 03:54:00;;;;;;;7.70;1.60;;;;;;;2.76;61.34;95283.81;5004726;28;20589;-78
2022/02/19 03:56:25;;;;;;;6.23;1.57;;;;;;;2.70;61.17;95279.09;5021888;28;20289;-78
2022/02/19 03:58:51;;;;;;;5.87;1.50;;;;;;;2.70;61.08;95275.72;5023423;28;20179;-77
2022/02/19 04:01:16;;;;;;;10.60;1.70;;;;;;;2.58;60.67;95279.16;5007998;28;20198;-78
2022/02/19 04:03:41;;;;;;;5.60;1.63;;;;;;;2.63;61.12;95284.75;5004030;28;20534;-78
2022/02/19 04:06:07;;;;;;;8.50;1.67;;;;;;;2.60;61.29;95300.34;5019986;28;20187;-79
2022/02/19 04:08:32;;;;;;;11.57;1.97;;;;;;;2.54;61.04;95288.78;5004164;28;20637;-77
2022/02/19 04:10:58;;;;;;;9.47;1.63;;;;;;;2.53;62.13;95290.50;5020095;28;20195;-79
2022/02/19 04:13:23;;;;;;;6.73;1.70;;;;;;;2.47;61.53;95288.41;5019616;28;20568;-78
2022/02/19 04:15:49;;;;;;;11.10;1.80;;;;;;;2.51;61.51;95283.88;5021119;28;20186;-79
2022/02/19 04:18:14;;;;;;;9.97;1.63;;;;;;;2.48;61.81;95282.34;5005489;28;20214;-80
2022/02/19 04:20:40;;;;;;;9.00;1.53;;;;;;;2.40;61.55;95286.34;5022194;28;20209;-79
2022/02/19 04:23:05;;;;;;;7.97;1.93;;;;;;;2.48;61.14;95297.72;5021580;28;20203;-80
2022/02/19 04:25:32;;;;;;;8.20;1.57;;;;;;;2.43;61.52;95289.50;5004205;28;20183;-80
2022/02/19 04:28:03;;;;;;;5.27;1.83;;;;;;;2.43;61.22;95310.00;5005447;28;20242;-80
2022/02/19 04:30:28;;;;;;;6.10;1.60;;;;;;;2.34;60.72;95307.25;5036679;28;20180;-80
2022/02/19 04:32:56;;;;;;;10.70;2.03;;;;;;;2.31;60.45;95330.53;5022582;28;20244;-80
2022/02/19 04:35:22;;;;;;;11.33;1.57;;;;;;;2.37;60.69;95301.91;5022302;28;20183;-80
2022/02/19 04:37:48;;;;;;;12.00;2.30;;;;;;;2.39;60.90;95329.09;5004959;28;20183;-80
2022/02/19 04:40:13;;;;;;;8.67;1.77;;;;;;;2.40;60.91;95320.47;5005493;28;20207;-79
2022/02/19 04:42:39;;;;;;;4.73;1.43;;;;;;;2.32;60.91;95335.56;5021851;28;20211;-79
2022/02/19 04:45:05;;;;;;;5.67;1.40;;;;;;;2.35;61.07;95344.78;5021475;28;20186;-80
2022/02/19 04:47:30;;;;;;;9.73;2.07;;;;;;;2.29;61.59;95351.09;5021334;28;20243;-79
2022/02/19 04:49:56;;;;;;;5.10;1.70;;;;;;;2.25;61.84;95350.50;5005605;28;20527;-80
2022/02/19 04:52:21;;;;;;;11.27;2.00;;;;;;;2.32;61.97;95356.06;5020940;28;20191;-80
2022/02/19 04:54:46;;;;;;;6.50;1.47;;;;;;;2.22;62.47;95370.41;5021978;28;20232;-80
2022/02/19 04:57:11;;;;;;;9.70;1.93;;;;;;;2.13;62.74;95378.69;5021260;28;20183;-80
2022/02/19 04:59:37;;;;;;;12.80;1.57;;;;;;;2.19;63.10;95361.16;5021224;28;20183;-79
2022/02/19 05:02:02;;;;;;;9.43;2.13;;;;;;;2.23;62.72;95377.97;5004907;28;20234;-80
2022/02/19 05:04:28;;;;;;;9.23;1.77;;;;;;;2.29;62.52;95371.59;5021530;28;20193;-79
2022/02/19 05:06:53;;;;;;;7.60;1.70;;;;;;;2.14;62.93;95373.47;5022143;28;20179;-79
2022/02/19 05:09:19;;;;;;;5.57;1.60;;;;;;;2.12;63.16;95369.34;5021228;28;20202;-80
2022/02/19 05:11:44;;;;;;;8.33;1.90;;;;;;;2.12;63.01;95382.16;5021048;28;20191;-80
2022/02/19 05:14:09;;;;;;;6.53;1.63;;;;;;;2.13;63.23;95391.50;5020901;28;20213;-80
2022/02/19 05:16:35;;;;;;;7.57;1.57;;;;;;;2.10;63.00;95396.81;5004698;28;20194;-80
2022/02/19 05:19:00;;;;;;;7.40;1.70;;;;;;;2.15;63.28;95405.03;5022019;28;20183;-79
2022/02/19 05:21:25;;;;;;;10.57;1.93;;;;;;;1.95;63.88;95402.00;5004271;28;20206;-80
2022/02/19 05:23:50;;;;;;;6.33;1.83;;;;;;;2.07;63.54;95409.81;5020844;28;20179;-79
2022/02/19 05:26:16;;;;;;;7.93;1.67;;;;;;;2.01;63.89;95411.03;5003348;28;20237;-80
2022/02/19 05:28:41;;;;;;;10.23;2.13;;;;;;;1.97;63.84;95414.72;5021341;28;20183;-79
2022/02/19 05:31:07;;;;;;;11.93;2.00;;;;;;;2.04;63.58;95407.47;5004491;28;20198;-79
2022/02/19 05:33:32;;;;;;;6.33;1.83;;;;;;;1.99;63.35;95423.13;5003877;28;20229;-78
2022/02/19 05:35:58;;;;;;;9.33;1.80;;;;;;;1.86;63.90;95428.22;5020745;28;20255;-80
2022/02/19 05:38:23;;;;;;;9.10;1.80;;;;;;;1.92;64.11;95432.09;5036875;28;20167;-80
2022/02/19 05:40:49;;;;;;;11.77;1.50;;;;;;;1.94;64.29;95428.53;5021491;28;20199;-80
2022/02/19 05:43:14;;;;;;;11.30;2.53;;;;;;;1.88;64.06;95446.03;5020086;28;20211;-79
2022/02/19 05:45:41;;;;;;;7.10;1.90;;;;;;;1.90;63.87;95439.06;5021079;28;20229;-80
2022/02/19 05:48:06;;;;;;;6.77;1.70;;;;;;;1.85;64.14;95441.91;5019938;28;20182;-80
2022/02/19 05:50:32;;;;;;;11.77;1.73;;;;;;;1.89;64.35;95429.75;5020177;28;20186;-80
2022/02/19 05:52:57;;;;;;;5.77;1.70;;;;;;;1.81;64.69;95434.53;5021189;28;20255;-79
2022/02/19 05:55:23;;;;;;;6.80;1.60;;;;;;;1.70;64.48;95448.03;5019834;28;20195;-79
2022/02/19 05:57:48;;;;;;;8.47;1.63;;;;;;;1.76;64.96;95439.94;5020237;28;20181;-80
2022/02/19 06:00:15;;;;;;;8.57;1.90;;;;;;;1.72;64.33;95448.75;5018387;28;20187;-79
2022/02/19 06:02:40;;;;;;;9.10;1.90;;;;;;;1.70;64.67;95448.84;5018712;28;20207;-79
2022/02/19 06:05:06;;;;;;;8.67;1.60;;;;;;;1.69;64.54;95456.63;5003186;28;20194;-79
2022/02/19 06:07:31;;;;;;;9.37;1.50;;;;;;;1.66;64.64;95459.34;5002370;28;20198;-78
2022/02/19 06:09:56;;;;;;;10.60;1.83;;;;;;;1.67;64.56;95469.50;5018510;28;20254;-79
2022/02/19 06:12:22;;;;;;;9.93;2.07;;;;;;;1.64;64.72;95468.88;5001346;28;20191;-79
2022/02/19 06:14:47;;;;;;;7.07;1.57;;;;;;;1.64;64.72;95468.88;5036412;28;20190;-78
2022/02/19 06:17:12;;;;;;;9.33;1.57;;;;;;;1.73;64.51;95477.72;5001758;28;20185;-78
2022/02/19 06:19:38;;;;;;;11.37;2.10;;;;;;;1.64;64.64;95486.78;5001367;28;20198;-78
2022/02/19 06:22:03;;;;;;;9.27;1.47;;;;;;;1.65;64.94;95493.53;5017653;28;20277;-78
2022/02/19 06:24:29;;;;;;;7.43;1.57;;;;;;;1.59;64.81;95493.91;5019534;28;20187;-79
2022/02/19 06:26:54;;;;;;;7.80;1.57;;;;;;;1.62;65.27;95506.53;5018511;28;20194;-79
2022/02/19 06:29:19;;;;;;;4.40;1.50;;;;;;;1.58;65.22;95495.66;5016970;28;20187;-79
2022/02/19 06:31:44;;;;;;;8.67;1.63;;;;;;;1.66;64.94;95506.25;5016651;28;20596;-77
2022/02/19 06:34:10;;;;;;;14.33;1.70;;;;;;;1.65;65.54;95511.47;5017619;28;20564;-77
2022/02/19 06:36:35;;;;;;;11.50;2.40;;;;;;;1.67;65.61;95527.53;5021866;28;20191;-79
2022/02/19 06:39:00;;;;;;;5.90;1.87;;;;;;;1.65;65.26;95534.50;5016111;28;20237;-79
2022/02/19 06:41:26;;;;;;;7.43;1.70;;;;;;;1.74;65.21;95539.06;5017828;28;20199;-80
2022/02/19 06:43:52;;;;;;;3.63;1.50;;;;;;;1.68;65.31;95540.28;5025209;28;20449;-79
2022/02/19 06:46:17;;;;;;;9.83;1.77;;;;;;;1.73;65.42;95534.84;5038694;28;20210;-81
2022/02/19 06:48:43;;;;;;;7.67;1.83;;;;;;;1.69;65.75;95547.03;5023797;28;20197;-79
2022/02/19 06:51:08;;;;;;;9.07;1.80;;;;;;;1.75;66.07;95556.06;5039764;28;20224;-79
2022/02/19 06:53:33;;;;;;;9.17;1.67;;;;;;;1.76;66.26;95557.69;5022224;28;20321;-80
2022/02/19 06:55:59;;;;;;;10.53;1.80;;;;;;;1.76;65.93;95567.13;5024571;28;20183;-80
2022/02/19 06:58:24;;;;;;;9.30;1.83;;;;;;;1.75;65.80;95581.66;5041806;28;20182;-79
2022/02/19 07:00:52;;;;;;;10.17;1.87;;;;;;;1.82;65.93;95588.06;5043955;28;20213;-80
2022/02/19 07:03:19;;;;;;;13.03;1.70;;;;;;;1.88;65.73;95600.50;5038550;28;20203;-80
2022/02/19 07:05:44;;;;;;;9.20;1.60;;;;;;;1.97;65.82;95592.25;5038574;28;20190;-81
2022/02/19 07:08:10;;;;;;;5.87;1.27;;;;;;;1.96;65.56;95605.16;5025790;28;20179;-79
2022/02/19 07:10:35;;;;;;;6.97;1.40;;;;;;;2.04;65.90;95620.88;5009662;28;20612;-79
2022/02/19 07:13:00;;;;;;;11.53;1.57;;;;;;;2.02;65.69;95603.94;5024463;28;20230;-79
2022/02/19 07:15:28;;;;;;;9.03;1.93;;;;;;;2.09;65.66;95615.47;5023849;28;20581;-79
2022/02/19 07:17:54;;;;;;;6.03;2.00;;;;;;;2.08;66.00;95624.06;5007444;28;20222;-80
2022/02/19 07:20:21;;;;;;;10.13;1.77;;;;;;;2.11;65.93;95619.56;5007846;28;20175;-79
2022/02/19 07:22:50;;;;;;;7.60;1.70;;;;;;;2.16;65.97;95632.94;5023722;28;20576;-80
2022/02/19 07:25:16;;;;;;;7.63;2.00;;;;;;;2.08;65.03;95650.50;5025308;28;20198;-79
2022/02/19 07:27:43;;;;;;;9.97;2.33;;;;;;;2.13;64.96;95647.69;5024480;28;20644;-79
2022/02/19 07:30:12;;;;;;;8.80;1.97;;;;;;;2.23;64.97;95648.75;5024964;28;20198;-79
2022/02/19 07:32:38;;;;;;;7.60;1.60;;;;;;;2.20;64.98;95652.31;5024595;28;20210;-80
2022/02/19 07:35:05;;;;;;;4.90;2.00;;;;;;;2.33;65.47;95652.38;5008058;28;20183;-78
2022/02/19 07:37:30;;;;;;;5.93;1.57;;;;;;;2.33;65.03;95652.38;5008162;28;20247;-80
2022/02/19 07:39:55;;;;;;;14.67;2.00;;;;;;;2.45;65.31;95663.59;5008096;28;20264;-80
2022/02/19 07:42:21;;;;;;;6.70;1.70;;;;;;;2.44;64.71;95669.66;5006973;28;20600;-79
2022/02/19 07:44:46;;;;;;;7.53;1.50;;;;;;;2.47;65.17;95672.88;5022867;28;20183;-80
2022/02/19 07:47:11;;;;;;;9.67;1.70;;;;;;;2.49;64.89;95688.16;5022413;28;20183;-79
2022/02/19 08:00:33;;;;;;;11.63;1.83;;;;;;;2.71;64.67;95692.75;5041178;28;20571;-80
2022/02/19 08:02:58;;;;;;;12.20;1.83;;;;;;;2.64;64.89;95699.16;5023143;28;20207;-79
2022/02/19 08:05:24;;;;;;;12.23;2.23;;;;;;;2.70;64.31;95704.75;5033742;28;20197;-80
2022/02/19 08:07:49;;;;;;;9.10;1.80;;;;;;;2.79;64.42;95711.03;5015947;28;20186;-79
2022/02/19 08:10:14;;;;;;;9.50;1.70;;;;;;;2.76;64.66;95709.50;5023588;28;20713;-79
2022/02/19 08:12:40;;;;;;;8.10;1.93;;;;;;;2.83;64.79;95699.69;5031877;28;20209;-80
2022/02/19 08:15:05;;;;;;;8.93;2.00;;;;;;;2.94;63.92;95706.69;5025799;28;20186;-79
2022/02/19 08:17:31;;;;;;;10.33;2.60;;;;;;;2.94;64.13;95717.78;5027187;28;20186;-79
2022/02/19 08:19:57;;;;;;;7.80;1.97;;;;;;;2.95;63.45;95718.59;5026001;28;20202;-79
2022/02/19 08:22:22;;;;;;;14.57;2.20;;;;;;;3.12;63.17;95731.19;5037408;28;20615;-82
2022/02/19 08:24:47;;;;;;;11.63;1.77;;;;;;;3.11;63.25;95724.41;5024670;28;20549;-82
2022/02/19 08:27:13;;;;;;;6.77;1.80;;;;;;;2.99;62.79;95740.56;5042316;28;20175;-82
2022/02/19 08:29:38;;;;;;;9.50;2.67;;;;;;;3.23;62.99;95746.72;5037064;28;20186;-81
2022/02/19 08:32:04;;;;;;;11.03;2.40;;;;;;;3.17;62.35;95739.41;5037831;28;20678;-81
2022/02/19 08:34:29;;;;;;;9.43;1.63;;;;;;;3.06;62.28;95742.66;5038520;28;20174;-82
2022/02/19 08:36:56;;;;;;;5.30;1.50;;;;;;;3.15;63.24;95756.63;5018729;28;20210;-82
2022/02/19 08:39:23;;;;;;;8.33;1.90;;;;;;;3.21;62.63;95768.28;5036512;28;20232;-80
2022/02/19 08:41:48;;;;;;;7.73;3.23;;;;;;;3.11;63.08;95766.28;5034907;28;20293;-82
2022/02/19 08:44:13;;;;;;;13.97;2.00;;;;;;;3.12;63.11;95764.53;5037041;28;20211;-80
2022/02/19 08:46:39;;;;;;;8.57;2.40;;;;;;;3.15;63.54;95771.22;5036848;28;20221;-81
2022/02/19 08:49:04;;;;;;;9.43;2.30;;;;;;;3.39;62.85;95770.47;5020623;28;20186;-81
2022/02/19 08:51:29;;;;;;;11.57;2.27;;;;;;;3.47;62.44;95774.31;5035846;28;20668;-81
2022/02/19 08:53:55;;;;;;;10.10;2.70;;;;;;;3.59;61.52;95776.06;5017566;28;20186;-81
2022/02/19 08:56:20;;;;;;;9.70;2.00;;;;;;;3.73;61.54;95770.88;5037657;28;20220;-80
2022/02/19 08:58:45;;;;;;;9.23;2.03;;;;;;;3.73;61.28;95775.19;5018897;28;20183;-81
2022/02/19 09:01:11;;;;;;;10.30;2.30;;;;;;;3.76;60.81;95790.38;5035558;28;20228;-81
2022/02/19 09:03:37;;;;;;;10.53;2.23;;;;;;;3.82;59.86;95784.84;5019527;28;20212;-83
2022/02/19 09:06:03;;;;;;;8.13;2.60;;;;;;;3.98;59.81;95777.78;5018988;28;20252;-81
2022/02/19 09:08:28;;;;;;;7.50;2.67;;;;;;;3.90;60.64;95780.03;5019514;28;20182;-81
2022/02/19 09:10:53;;;;;;;11.07;2.60;;;;;;;3.95;60.18;95783.09;5018814;28;20288;-81
2022/02/19 09:13:18;;;;;;;9.63;2.30;;;;;;;3.78;59.87;95778.25;5035455;28;20168;-83
2022/02/19 09:15:45;;;;;;;10.07;2.30;;;;;;;3.82;60.74;95787.44;5036326;28;20198;-81
2022/02/19 09:18:11;;;;;;;7.40;2.10;;;;;;;3.98;60.25;95794.03;5035803;28;20170;-81
2022/02/19 09:20:36;;;;;;;9.00;2.03;;;;;;;3.98;60.54;95793.22;5018710;28;20644;-81
2022/02/19 09:23:02;;;;;;;12.33;2.67;;;;;;;3.90;60.17;95796.28;5017519;28;20226;-80
2022/02/19 09:25:27;;;;;;;12.83;1.83;;;;;;;4.13;59.91;95793.91;5033762;28;20166;-82
2022/02/19 09:27:52;;;;;;;11.00;2.57;;;;;;;4.17;59.28;95796.19;5035731;28;20185;-82
2022/02/19 09:30:18;;;;;;;7.63;2.40;;;;;;;4.12;59.25;95799.97;5018101;28;20179;-82
2022/02/19 09:32:43;;;;;;;12.03;2.50;;;;;;;4.45;59.09;95796.91;5034089;28;20192;-82
2022/02/19 09:35:09;;;;;;;11.30;1.93;;;;;;;4.40;59.26;95804.09;5034743;28;20592;-81
2022/02/19 09:37:34;;;;;;;12.20;1.90;;;;;;;4.25;59.41;95811.94;5034363;28;20977;-82
2022/02/19 09:40:00;;;;;;;10.80;2.30;;;;;;;4.58;59.36;95802.03;5017929;28;20176;-81
2022/02/19 09:42:25;;;;;;;13.07;2.57;;;;;;;4.50;59.13;95810.25;5033278;28;20201;-80
2022/02/19 09:44:56;;;;;;;6.20;1.50;;;;;;;4.42;59.29;95797.13;5033901;28;20176;-81
2022/02/19 09:47:28;;;;;;;11.40;1.80;;;;;;;4.54;58.88;95801.41;5018111;28;20195;-82
2022/02/19 09:49:55;;;;;;;5.60;1.57;;;;;;;4.31;59.22;95799.56;5017301;28;20173;-79
2022/02/19 09:52:20;;;;;;;6.70;2.00;;;;;;;4.48;59.09;95794.09;5017334;28;20712;-80
2022/02/19 09:54:46;;;;;;;8.10;1.97;;;;;;;4.69;58.71;95800.38;5016557;28;20190;-81
2022/02/19 09:57:11;;;;;;;5.70;1.63;;;;;;;4.68;58.04;95798.75;5017328;28;20679;-81
2022/02/19 09:59:36;;;;;;;8.97;1.80;;;;;;;4.87;58.64;95797.47;5016996;28;20682;-80
2022/02/19 10:02:04;;;;;;;7.77;2.00;;;;;;;4.83;57.82;95810.53;5016681;28;20582;-80
2022/02/19 10:04:29;;;;;;;10.00;1.80;;;;;;;5.19;57.04;95802.91;5016763;28;20265;-81
2022/02/19 10:06:58;;;;;;;11.03;3.00;;;;;;;5.29;56.59;95804.72;5034362;28;20216;-81
2022/02/19 10:09:24;;;;;;;14.63;1.90;;;;;;;5.27;55.74;95814.31;5018106;28;20257;-82
2022/02/19 10:11:51;;;;;;;8.73;1.97;;;;;;;5.31;55.49;95800.31;5017336;28;20260;-81
2022/02/19 10:14:31;;;;;;;6.03;1.50;;;;;;;5.43;56.66;95797.78;5017549;28;20179;-82
2022/02/19 10:17:16;;;;;;;10.53;2.40;;;;;;;5.61;55.96;95806.75;5033485;28;20654;-80
2022/02/19 10:19:55;;;;;;;7.63;2.20;;;;;;;5.65;55.12;95803.84;5033295;28;20185;-77
2022/02/19 10:22:28;;;;;;;6.80;1.73;;;;;;;5.67;56.26;95814.88;4993649;28;20211;-79
2022/02/19 10:24:56;;;;;;;9.43;1.63;;;;;;;5.19;54.21;95808.88;5023200;28;20194;-81
2022/02/19 10:27:22;;;;;;;8.47;1.67;;;;;;;5.27;54.67;95824.59;4995184;28;20187;-81
2022/02/19 10:29:53;;;;;;;7.23;1.77;;;;;;;5.39;54.01;95810.88;5016233;28;20183;-83
2022/02/19 10:32:19;;;;;;;5.37;1.67;;;;;;;4.97;54.35;95816.47;4995771;28;20202;-83
2022/02/19 10:35:05;;;;;;;7.53;2.53;;;;;;;5.23;54.57;95791.47;5009116;28;20185;-82
2022/02/19 10:37:44;;;;;;;7.97;1.73;;;;;;;5.30;54.50;95800.38;4994677;28;20187;-81
2022/02/19 10:40:26;;;;;;;7.57;2.13;;;;;;;5.42;54.61;95793.56;4993544;28;20193;-81
2022/02/19 10:42:55;;;;;;;9.47;1.80;;;;;;;4.84;55.71;95801.03;5012575;28;20835;-81
2022/02/19 10:45:20;;;;;;;6.37;1.57;;;;;;;5.27;55.23;95798.84;5013650;28;20185;-81
2022/02/19 10:47:46;;;;;;;5.80;1.50;;;;;;;5.28;53.72;95792.78;4996421;28;20690;-80
2022/02/19 10:50:16;;;;;;;9.30;1.80;;;;;;;5.37;52.75;95807.56;5015659;28;20179;-81
2022/02/19 10:52:43;;;;;;;5.73;1.73;;;;;;;5.35;53.88;95806.03;4996915;28;20704;-80
2022/02/19 10:55:11;;;;;;;8.03;1.80;;;;;;;5.17;53.34;95795.28;4997442;28;20624;-81
2022/02/19 10:57:44;;;;;;;9.00;2.03;;;;;;;5.36;54.12;95798.19;5015571;28;20182;-80
2022/02/19 11:00:16;;;;;;;7.10;1.57;;;;;;;5.54;53.42;95803.78;4997902;28;20201;-79
2022/02/19 11:02:43;;;;;;;9.90;1.63;;;;;;;5.73;53.38;95811.00;5015696;28;20585;-79
2022/02/19 11:05:10;;;;;;;7.03;1.63;;;;;;;6.04;53.05;95813.97;5014990;28;20209;-79
2022/02/19 11:07:37;;;;;;;7.13;2.20;;;;;;;6.34;52.44;95809.09;5014856;28;20179;-80
2022/02/19 11:10:04;;;;;;;4.20;1.60;;;;;;;6.52;52.63;95828.34;4999387;28;20187;-79
2022/02/19 11:12:30;;;;;;;5.77;1.40;;;;;;;5.92;50.89;95819.09;5016131;28;20290;-79
2022/02/19 11:14:55;;;;;;;7.77;1.80;;;;;;;6.50;50.79;95830.22;5017773;28;20198;-79
2022/02/19 11:17:22;;;;;;;6.73;1.73;;;;;;;6.43;51.75;95818.72;5002446;28;20676;-80
2022/02/19 11:19:47;;;;;;;8.13;1.50;;;;;;;6.84;52.32;95821.66;5002253;28;20187;-80
2022/02/19 11:22:13;;;;;;;7.67;1.50;;;;;;;6.75;50.32;95826.59;5000930;28;20211;-79
2022/02/19 11:24:40;;;;;;;6.30;2.00;;;;;;;6.89;50.11;95820.38;5001661;28;20602;-82
2022/02/19 11:27:07;;;;;;;11.27;2.20;;;;;;;6.44;51.80;95819.53;5001172;28;20186;-80
2022/02/19 11:29:32;;;;;;;8.70;2.00;;;;;;;6.49;51.24;95817.44;5018539;28;20171;-80
2022/02/19 11:31:58;;;;;;;4.53;1.50;;;;;;;6.42;52.43;95818.84;5018299;28;20198;-81
2022/02/19 11:34:23;;;;;;;6.23;1.50;;;;;;;6.68;51.03;95809.13;5020208;28;20626;-81
2022/02/19 11:36:50;;;;;;;10.43;2.23;;;;;;;6.45;51.69;95816.84;5023071;28;20183;-80
2022/02/19 11:39:15;;;;;;;6.93;1.57;;;;;;;6.53;51.50;95813.66;5023018;28;20175;-79
2022/02/19 11:41:43;;;;;;;8.80;1.60;;;;;;;6.36;52.19;95812.38;5003092;28;20732;-79
2022/02/19 11:44:14;;;;;;;11.20;1.77;;;;;;;6.47;52.45;95814.16;5021583;28;20596;-80